SVEK weather

El Capitán Airport
Zulia, Venezuela

Public forecast

Using degrees Celsius for public forecast. Weather courtesy of forecast.io.

METAR (pilot weather report)

Closest report is Alfonso López Pumarejo Airport, 44.2 nm (81.8 km) WNW. Retrieved 2019/04/26 00:00 UTC (11 minutes ago):

SKVP 260000Z 06012KT 9999 VCSH SCT020TCU SCT070 30/23 A2987 RMK TCU VCSH NE/E

TAF (pilot weather forecast)

Forecast is more than 12 hours old.

Closest forecast is La Chinita International Airport, 56.8 nm (105.2 km) ENE. Retrieved 2019/04/25 00:04 UTC (1 day ago):

TAF SVMC 252200Z 2600/2700 21011KT 9999 BKN016 TX29/1900Z TN23/0900Z TEMPO 2601/2605 21005KT 9000 DZ BKN016